createdAt,value
2023-03-29T00:01:34.892Z,6.53
2023-03-29T00:04:02.455Z,6.57
2023-03-29T00:06:33.284Z,6.30
2023-03-29T00:08:57.122Z,6.67
2023-03-29T00:11:22.919Z,6.53
2023-03-29T00:13:46.535Z,6.63
2023-03-29T00:16:12.964Z,6.37
2023-03-29T00:18:36.786Z,6.23
2023-03-29T00:21:02.103Z,6.70
2023-03-29T00:23:26.230Z,6.53
2023-03-29T00:25:49.915Z,6.87
2023-03-29T00:28:15.048Z,6.10
2023-03-29T00:30:38.661Z,6.90
2023-03-29T00:33:02.690Z,6.80
2023-03-29T00:35:27.189Z,6.50
2023-03-29T00:37:53.059Z,6.13
2023-03-29T00:40:17.047Z,6.70
2023-03-29T00:42:41.137Z,6.63
2023-03-29T00:45:11.464Z,6.93
2023-03-29T00:47:41.700Z,6.57
2023-03-29T00:50:14.367Z,7.03
2023-03-29T00:52:40.446Z,6.27
2023-03-29T00:55:21.788Z,6.67
2023-03-29T00:57:47.066Z,6.57
2023-03-29T01:00:15.496Z,6.10
2023-03-29T01:02:41.168Z,6.50
2023-03-29T01:05:09.915Z,6.87
2023-03-29T01:07:42.716Z,7.07
2023-03-29T01:10:12.127Z,6.77
2023-03-29T01:12:42.287Z,7.00
2023-03-29T01:15:12.399Z,7.10
2023-03-29T01:17:37.341Z,6.97
2023-03-29T01:20:13.575Z,7.27
2023-03-29T01:22:51.428Z,7.20
2023-03-29T01:25:26.274Z,7.57
2023-03-29T01:27:56.186Z,6.70
2023-03-29T01:30:28.448Z,7.50
2023-03-29T01:32:57.178Z,7.20
2023-03-29T01:35:26.698Z,7.33
2023-03-29T01:37:58.474Z,7.10
2023-03-29T01:40:22.177Z,6.63
2023-03-29T01:42:56.469Z,6.80
2023-03-29T01:45:26.418Z,7.00
2023-03-29T01:48:19.733Z,7.30
2023-03-29T01:50:47.606Z,6.57
2023-03-29T01:53:17.632Z,6.60
2023-03-29T01:55:46.038Z,6.50
2023-03-29T01:58:13.741Z,6.23
2023-03-29T02:00:39.889Z,6.70
2023-03-29T02:03:09.628Z,6.67
2023-03-29T02:05:35.039Z,6.63
2023-03-29T02:08:00.158Z,6.60
2023-03-29T02:10:25.904Z,6.53
2023-03-29T02:12:49.693Z,6.20
2023-03-29T02:15:18.487Z,6.77
2023-03-29T02:17:44.212Z,6.53
2023-03-29T02:20:14.709Z,6.43
2023-03-29T02:22:44.109Z,6.77
2023-03-29T02:25:10.043Z,6.37
2023-03-29T02:27:37.807Z,5.77
2023-03-29T02:30:01.922Z,6.30
2023-03-29T02:32:35.616Z,6.17
2023-03-29T02:35:04.622Z,6.27
2023-03-29T02:37:31.366Z,6.30
2023-03-29T02:39:55.442Z,5.73
2023-03-29T02:42:20.845Z,6.20
2023-03-29T02:44:48.754Z,6.23
2023-03-29T02:47:19.663Z,6.80
2023-03-29T02:49:45.160Z,6.17
2023-03-29T02:52:14.844Z,5.87
2023-03-29T02:54:43.095Z,5.60
2023-03-29T02:57:07.547Z,5.90
2023-03-29T02:59:32.006Z,5.90
2023-03-29T03:01:55.783Z,5.97
2023-03-29T03:04:21.600Z,5.43
2023-03-29T03:06:46.955Z,6.17
2023-03-29T03:09:10.853Z,5.50
2023-03-29T03:11:37.563Z,4.77
2023-03-29T03:14:01.281Z,4.10
2023-03-29T03:16:26.205Z,4.63
2023-03-29T03:18:51.278Z,4.90
2023-03-29T03:21:14.912Z,4.57
2023-03-29T03:23:40.474Z,4.17
2023-03-29T03:26:05.066Z,4.57
2023-03-29T03:28:30.089Z,3.87
2023-03-29T03:30:54.239Z,4.50
2023-03-29T03:33:36.732Z,4.30
2023-03-29T03:36:31.462Z,4.03
2023-03-29T03:38:57.134Z,4.23
2023-03-29T03:41:20.919Z,4.07
2023-03-29T03:43:48.720Z,3.90
2023-03-29T03:46:13.019Z,4.23
2023-03-29T03:48:37.323Z,4.07
2023-03-29T03:51:16.075Z,3.73
2023-03-29T03:53:40.749Z,4.10
2023-03-29T03:56:13.954Z,3.90
2023-03-29T03:59:01.180Z,4.07
2023-03-29T04:01:28.385Z,4.20
2023-03-29T04:04:01.653Z,4.17
2023-03-29T04:06:25.590Z,4.07
2023-03-29T04:09:09.303Z,3.87
2023-03-29T04:11:38.226Z,3.77
2023-03-29T04:14:03.191Z,3.70
2023-03-29T04:16:48.320Z,4.47
2023-03-29T04:19:31.105Z,3.70
2023-03-29T04:21:54.865Z,4.33
2023-03-29T04:24:18.763Z,4.00
2023-03-29T04:27:00.614Z,3.90
2023-03-29T04:29:24.531Z,4.30
2023-03-29T04:31:56.499Z,3.80
2023-03-29T04:34:45.855Z,4.50
2023-03-29T04:37:10.606Z,4.47
2023-03-29T04:39:34.736Z,3.30
2023-03-29T04:42:03.058Z,4.17
2023-03-29T04:44:28.156Z,4.43
2023-03-29T04:46:54.477Z,4.70
2023-03-29T04:49:44.152Z,3.83
2023-03-29T04:52:15.737Z,4.20
2023-03-29T04:54:40.533Z,4.73
2023-03-29T04:57:35.400Z,4.20
2023-03-29T05:00:15.128Z,4.60
2023-03-29T05:03:02.008Z,4.77
2023-03-29T05:05:28.694Z,4.50
2023-03-29T05:07:54.948Z,4.53
2023-03-29T05:10:24.476Z,4.40
2023-03-29T05:12:53.966Z,4.87
2023-03-29T05:15:19.395Z,4.43
2023-03-29T05:17:44.136Z,4.53
2023-03-29T05:20:11.298Z,4.33
2023-03-29T05:22:36.360Z,5.30
2023-03-29T05:25:00.768Z,4.60
2023-03-29T05:27:24.792Z,4.40
2023-03-29T05:30:04.749Z,4.70
2023-03-29T05:32:51.301Z,4.37
2023-03-29T05:35:20.144Z,4.97
2023-03-29T05:37:43.887Z,4.23
2023-03-29T05:40:12.939Z,4.90
2023-03-29T05:43:12.216Z,4.77
2023-03-29T05:45:37.501Z,5.47
2023-03-29T05:48:01.480Z,4.37
2023-03-29T05:50:26.121Z,5.20
2023-03-29T05:52:53.106Z,5.77
2023-03-29T05:55:16.934Z,5.70
2023-03-29T05:57:40.763Z,5.27
2023-03-29T06:00:20.094Z,4.60
2023-03-29T06:02:45.708Z,4.80
2023-03-29T06:05:10.125Z,4.47
2023-03-29T06:07:39.903Z,5.07
2023-03-29T06:10:21.955Z,5.27
2023-03-29T06:12:51.625Z,5.43
2023-03-29T06:15:18.882Z,6.03
2023-03-29T06:18:04.694Z,6.00
2023-03-29T06:20:29.955Z,5.33
2023-03-29T06:23:00.131Z,4.93
2023-03-29T06:25:23.856Z,5.33
2023-03-29T06:27:47.893Z,5.90
2023-03-29T06:30:15.470Z,5.00
2023-03-29T06:32:43.449Z,4.97
2023-03-29T06:35:25.278Z,4.57
2023-03-29T06:37:56.488Z,4.70
2023-03-29T06:40:48.332Z,5.17
2023-03-29T06:43:13.090Z,5.47
2023-03-29T06:45:49.457Z,5.37
2023-03-29T06:48:23.588Z,4.67
2023-03-29T06:50:49.448Z,5.03
2023-03-29T06:53:15.661Z,4.90
2023-03-29T06:55:41.389Z,4.63
2023-03-29T06:58:28.821Z,4.83
2023-03-29T07:01:02.664Z,4.53
2023-03-29T07:03:49.696Z,5.00
2023-03-29T07:06:20.565Z,4.63
2023-03-29T07:08:47.417Z,4.87
2023-03-29T07:11:22.502Z,5.43
2023-03-29T07:13:52.213Z,4.90
2023-03-29T07:16:18.132Z,5.30
2023-03-29T07:18:49.113Z,5.07
2023-03-29T07:21:28.815Z,5.33
2023-03-29T07:23:54.137Z,4.90
2023-03-29T07:26:28.553Z,4.70
2023-03-29T07:28:54.976Z,4.87
2023-03-29T07:31:18.697Z,4.40
2023-03-29T07:33:49.644Z,4.40
2023-03-29T07:36:13.760Z,4.40
2023-03-29T07:38:39.912Z,4.40
2023-03-29T07:41:11.385Z,4.47
2023-03-29T07:43:42.936Z,4.47
2023-03-29T07:48:37.235Z,5.30
2023-03-29T07:51:11.930Z,5.47
2023-03-29T07:53:47.499Z,5.32
2023-03-29T07:56:30.264Z,4.68
2023-03-29T07:59:14.124Z,4.50
2023-03-29T08:01:41.118Z,5.05
2023-03-29T08:04:21.612Z,4.43
2023-03-29T08:07:03.974Z,3.95
2023-03-29T08:09:47.727Z,4.28
2023-03-29T08:12:11.656Z,4.18
2023-03-29T08:14:36.190Z,4.13
2023-03-29T08:17:13.923Z,3.97
2023-03-29T08:19:51.410Z,3.85
2023-03-29T08:22:20.589Z,4.28
2023-03-29T08:25:17.031Z,4.00
2023-03-29T08:27:45.426Z,4.10
2023-03-29T08:30:14.873Z,4.00
2023-03-29T08:32:39.237Z,4.32
2023-03-29T08:35:04.847Z,3.42
2023-03-29T08:37:34.825Z,3.63
2023-03-29T08:39:58.844Z,4.05
2023-03-29T08:43:01.847Z,3.95
2023-03-29T08:45:39.514Z,4.68
2023-03-29T08:48:17.866Z,3.97
2023-03-29T08:50:48.021Z,4.13
2023-03-29T08:53:18.835Z,4.38
2023-03-29T08:56:11.775Z,3.83
2023-03-29T08:58:58.423Z,3.97
2023-03-29T09:01:31.120Z,3.78
2023-03-29T09:04:06.113Z,3.55
2023-03-29T09:06:47.558Z,3.45
2023-03-29T09:09:20.319Z,3.80
2023-03-29T09:12:04.257Z,3.50
2023-03-29T09:14:51.352Z,3.78
2023-03-29T09:17:30.691Z,3.83
2023-03-29T09:20:06.483Z,4.00
2023-03-29T09:22:39.930Z,3.83
2023-03-29T09:25:13.370Z,3.80
2023-03-29T09:27:50.538Z,3.80
2023-03-29T09:30:36.441Z,4.00
2023-03-29T09:33:07.779Z,3.70
2023-03-29T09:35:56.416Z,3.97
2023-03-29T09:38:23.012Z,5.32
2023-03-29T09:40:51.541Z,3.67
2023-03-29T09:43:30.182Z,4.30
2023-03-29T09:46:00.186Z,3.38
2023-03-29T09:48:26.532Z,3.97
2023-03-29T09:50:53.660Z,4.05
2023-03-29T09:53:19.748Z,4.05
2023-03-29T09:55:53.125Z,3.78
2023-03-29T09:58:32.938Z,3.90
2023-03-29T10:01:03.221Z,4.00
2023-03-29T10:03:29.920Z,3.80
2023-03-29T10:06:05.350Z,3.85
2023-03-29T10:08:31.877Z,3.75
2023-03-29T10:10:59.949Z,3.30
2023-03-29T10:13:30.490Z,3.00
2023-03-29T10:16:03.785Z,3.20
2023-03-29T10:18:32.615Z,2.97
2023-03-29T10:21:03.194Z,3.20
2023-03-29T10:23:34.065Z,3.20
2023-03-29T10:25:57.870Z,3.28
2023-03-29T10:28:22.941Z,3.42
2023-03-29T10:30:54.118Z,3.50
2023-03-29T10:33:24.076Z,2.28
2023-03-29T10:35:50.543Z,3.83
2023-03-29T10:38:18.315Z,3.67
2023-03-29T10:40:45.834Z,3.70
2023-03-29T10:43:16.120Z,2.97
2023-03-29T10:45:41.193Z,3.30
2023-03-29T10:48:07.927Z,3.85
2023-03-29T10:50:38.072Z,3.78
2023-03-29T10:53:03.557Z,3.83
2023-03-29T10:55:35.696Z,3.60
2023-03-29T10:58:09.832Z,3.28
2023-03-29T11:00:39.453Z,3.42
2023-03-29T11:03:30.826Z,3.90
2023-03-29T11:06:04.305Z,3.55
2023-03-29T11:08:50.536Z,3.70
2023-03-29T11:11:41.305Z,3.22
2023-03-29T11:14:15.938Z,3.70
2023-03-29T11:16:46.976Z,3.70
2023-03-29T11:19:44.384Z,3.97
2023-03-29T11:22:15.199Z,3.83
2023-03-29T11:24:53.715Z,3.60
2023-03-29T11:27:31.819Z,3.72
2023-03-29T11:30:12.358Z,3.60
2023-03-29T11:32:47.036Z,4.00
2023-03-29T11:35:38.476Z,3.75
2023-03-29T11:38:15.206Z,4.20
2023-03-29T11:40:53.442Z,4.00
2023-03-29T11:43:25.242Z,3.50
2023-03-29T11:45:56.013Z,3.50
2023-03-29T11:48:25.414Z,2.38
2023-03-29T11:50:56.446Z,3.38
2023-03-29T11:53:29.535Z,2.92
2023-03-29T11:55:56.135Z,3.00
2023-03-29T11:58:25.306Z,3.15
2023-03-29T12:00:55.440Z,3.28
2023-03-29T12:03:34.485Z,2.90
2023-03-29T12:06:05.083Z,2.90
2023-03-29T12:08:33.983Z,2.70
2023-03-29T12:11:05.330Z,2.83
2023-03-29T12:13:33.492Z,2.85
2023-03-29T12:16:04.023Z,2.88
2023-03-29T12:18:34.138Z,2.70
2023-03-29T12:21:03.209Z,3.50
2023-03-29T12:23:32.348Z,2.78
2023-03-29T12:26:06.976Z,2.75
2023-03-29T12:29:15.176Z,3.65
2023-03-29T12:31:45.990Z,3.20
2023-03-29T12:34:36.321Z,3.05
2023-03-29T12:37:33.768Z,3.55
2023-03-29T12:40:20.004Z,3.20
2023-03-29T12:43:07.000Z,3.10
2023-03-29T12:46:09.504Z,3.58
2023-03-29T12:48:34.127Z,3.55
2023-03-29T12:51:02.257Z,3.08
2023-03-29T12:53:28.809Z,3.20
2023-03-29T12:56:09.631Z,3.38
2023-03-29T12:59:09.047Z,3.70
2023-03-29T13:01:35.040Z,3.60
2023-03-29T13:04:18.609Z,3.13
2023-03-29T13:07:04.089Z,3.50
2023-03-29T13:09:30.392Z,3.50
2023-03-29T13:11:57.575Z,4.00
2023-03-29T13:14:24.891Z,3.28
2023-03-29T13:16:49.327Z,3.40
2023-03-29T13:19:28.486Z,3.22
2023-03-29T13:22:05.841Z,3.38
2023-03-29T13:24:53.022Z,3.35
2023-03-29T13:27:31.754Z,3.20
2023-03-29T13:30:25.364Z,3.75
2023-03-29T13:32:57.228Z,3.10
2023-03-29T13:35:33.239Z,2.70
2023-03-29T13:38:09.028Z,2.80
2023-03-29T13:40:44.766Z,2.92
2023-03-29T13:43:23.591Z,2.78
2023-03-29T13:46:04.506Z,2.50
2023-03-29T13:48:30.459Z,3.00
2023-03-29T13:50:57.093Z,2.90
2023-03-29T13:53:29.239Z,2.95
2023-03-29T13:55:55.598Z,3.03
2023-03-29T13:58:34.149Z,3.85
2023-03-29T14:01:04.184Z,3.10
2023-03-29T14:03:30.772Z,2.85
2023-03-29T14:06:00.271Z,3.08
2023-03-29T14:08:29.826Z,2.85
2023-03-29T14:10:55.092Z,3.28
2023-03-29T14:13:24.043Z,3.85
2023-03-29T14:15:51.534Z,5.47
2023-03-29T14:18:19.066Z,3.90
2023-03-29T14:20:46.252Z,3.28
2023-03-29T14:23:14.995Z,3.20
2023-03-29T14:25:41.329Z,3.13
2023-03-29T14:28:22.363Z,5.65
2023-03-29T14:30:49.828Z,3.80
2023-03-29T14:33:15.219Z,3.60
2023-03-29T14:35:40.528Z,3.72
2023-03-29T14:38:04.331Z,3.85
2023-03-29T14:40:28.201Z,3.15
2023-03-29T14:42:52.526Z,2.95
2023-03-29T14:45:19.727Z,3.15
2023-03-29T14:47:45.990Z,3.47
2023-03-29T14:50:20.911Z,3.08
2023-03-29T14:52:46.995Z,3.33
2023-03-29T14:55:12.697Z,4.22
2023-03-29T14:57:38.201Z,4.05
2023-03-29T15:00:13.425Z,3.55
2023-03-29T15:02:38.848Z,4.00
2023-03-29T15:05:04.871Z,3.83
2023-03-29T15:07:29.866Z,4.20
2023-03-29T15:09:53.813Z,4.22
2023-03-29T15:12:17.958Z,5.30
2023-03-29T15:14:42.093Z,4.50
2023-03-29T15:17:42.647Z,3.97
2023-03-29T15:20:21.580Z,4.78
2023-03-29T15:22:57.893Z,4.65
2023-03-29T15:25:22.948Z,4.97
2023-03-29T15:27:50.715Z,5.93
2023-03-29T15:30:18.159Z,5.00
2023-03-29T15:32:41.966Z,5.00
2023-03-29T15:35:09.353Z,5.20
2023-03-29T15:37:34.626Z,5.07
2023-03-29T15:39:59.042Z,5.20
2023-03-29T15:42:22.733Z,5.32
2023-03-29T15:44:46.402Z,5.38
2023-03-29T15:47:12.121Z,5.18
2023-03-29T15:49:36.138Z,5.40
2023-03-29T15:51:59.915Z,5.97
2023-03-29T15:54:25.778Z,6.05
2023-03-29T15:56:54.087Z,6.25
2023-03-29T15:59:19.256Z,7.30
2023-03-29T16:01:43.102Z,8.80
2023-03-29T16:04:10.585Z,10.73
2023-03-29T16:06:36.239Z,5.80
2023-03-29T16:09:00.117Z,5.65
2023-03-29T16:11:25.417Z,6.13
2023-03-29T16:13:49.244Z,5.65
2023-03-29T16:16:13.283Z,6.28
2023-03-29T16:18:36.944Z,5.95
2023-03-29T16:21:00.842Z,5.93
2023-03-29T16:23:24.550Z,6.07
2023-03-29T16:25:48.239Z,5.22
2023-03-29T16:28:13.536Z,6.00
2023-03-29T16:30:39.250Z,6.00
2023-03-29T16:33:06.341Z,6.18
2023-03-29T16:35:32.952Z,6.55
2023-03-29T16:37:56.818Z,6.55
2023-03-29T16:40:21.076Z,5.70
2023-03-29T16:42:45.390Z,5.75
2023-03-29T16:45:14.944Z,6.75
2023-03-29T16:47:39.553Z,8.65
2023-03-29T16:50:03.297Z,7.75
2023-03-29T16:52:27.701Z,8.00
2023-03-29T16:54:53.045Z,25.98
2023-03-29T16:57:16.858Z,15.77
2023-03-29T16:59:42.314Z,7.72
2023-03-29T17:02:07.350Z,7.18
2023-03-29T17:04:31.471Z,14.65
2023-03-29T17:06:55.350Z,24.83
2023-03-29T17:09:19.036Z,15.15
2023-03-29T17:11:42.766Z,9.45
2023-03-29T17:14:06.485Z,10.55
2023-03-29T17:16:30.324Z,8.23
2023-03-29T17:18:55.472Z,8.00
2023-03-29T17:21:19.184Z,8.40
2023-03-29T17:23:42.993Z,7.85
2023-03-29T17:26:07.805Z,8.25
2023-03-29T17:28:31.415Z,7.65
2023-03-29T17:30:55.240Z,7.32
2023-03-29T17:33:22.840Z,7.60
2023-03-29T17:35:48.592Z,6.60
2023-03-29T17:38:12.760Z,6.97
2023-03-29T17:40:36.471Z,6.75
2023-03-29T17:43:00.180Z,6.65
2023-03-29T17:45:24.021Z,6.93
2023-03-29T17:47:47.770Z,6.35
2023-03-29T17:50:13.891Z,6.53
2023-03-29T17:52:39.604Z,6.43
2023-03-29T17:55:03.505Z,6.43
2023-03-29T17:57:27.111Z,6.70
2023-03-29T17:59:50.813Z,7.20
2023-03-29T18:02:19.210Z,7.53
2023-03-29T18:04:42.922Z,8.73
2023-03-29T18:07:06.530Z,7.78
2023-03-29T18:09:31.748Z,7.80
2023-03-29T18:11:55.490Z,7.40
2023-03-29T18:14:21.284Z,7.38
2023-03-29T18:16:45.010Z,7.18
2023-03-29T18:19:10.745Z,6.60
2023-03-29T18:21:34.566Z,6.72
2023-03-29T18:23:58.297Z,6.82
2023-03-29T18:26:24.186Z,6.75
2023-03-29T18:28:48.445Z,7.32
2023-03-29T18:31:12.182Z,6.85
2023-03-29T18:33:36.354Z,6.93
2023-03-29T18:36:00.162Z,6.93
2023-03-29T18:38:24.487Z,7.05
2023-03-29T18:40:48.293Z,7.20
2023-03-29T18:43:13.522Z,6.60
2023-03-29T18:45:37.455Z,7.20
2023-03-29T18:48:02.166Z,7.78
2023-03-29T18:50:25.879Z,8.38
2023-03-29T18:52:49.615Z,8.15
2023-03-29T18:55:13.287Z,7.82
2023-03-29T18:57:37.250Z,7.55
2023-03-29T19:00:02.466Z,7.82
2023-03-29T19:02:26.185Z,7.30
2023-03-29T19:04:50.181Z,8.00
2023-03-29T19:07:13.915Z,8.13
2023-03-29T19:09:37.641Z,9.20
2023-03-29T19:12:01.329Z,7.97
2023-03-29T19:14:25.337Z,8.20
2023-03-29T19:16:50.856Z,8.90
2023-03-29T19:19:14.505Z,8.98
2023-03-29T19:21:38.622Z,8.80
2023-03-29T19:24:05.080Z,10.45
2023-03-29T19:26:29.535Z,8.70
2023-03-29T19:28:53.228Z,9.32
2023-03-29T19:31:16.992Z,10.15
2023-03-29T19:33:42.134Z,10.23
2023-03-29T19:36:06.851Z,9.60
2023-03-29T19:38:30.905Z,10.25
2023-03-29T19:40:54.616Z,10.57
2023-03-29T19:43:18.635Z,10.07
2023-03-29T19:45:42.513Z,9.93
2023-03-29T19:48:07.164Z,8.77
2023-03-29T19:50:32.791Z,9.10
2023-03-29T19:52:58.534Z,9.02
2023-03-29T19:55:22.473Z,8.75
2023-03-29T19:57:46.212Z,8.10
2023-03-29T20:00:11.704Z,8.48
2023-03-29T20:02:38.264Z,7.95
2023-03-29T20:05:02.019Z,7.97
2023-03-29T20:07:27.183Z,8.38
2023-03-29T20:09:50.961Z,8.88
2023-03-29T20:12:14.721Z,8.95
2023-03-29T20:14:40.335Z,8.38
2023-03-29T20:17:04.589Z,8.57
2023-03-29T20:19:30.103Z,8.75
2023-03-29T20:21:57.431Z,8.43
2023-03-29T20:24:23.152Z,9.48
2023-03-29T20:26:46.923Z,8.32
2023-03-29T20:29:10.681Z,9.25
2023-03-29T20:31:34.615Z,9.55
2023-03-29T20:33:58.716Z,8.98
2023-03-29T20:36:23.387Z,8.63
2023-03-29T20:38:47.228Z,9.32
2023-03-29T20:41:13.922Z,8.32
2023-03-29T20:43:38.361Z,9.18
2023-03-29T20:46:02.129Z,9.00
2023-03-29T20:48:31.623Z,9.70
2023-03-29T20:50:55.439Z,8.93
2023-03-29T20:53:20.742Z,8.95
2023-03-29T20:55:44.685Z,9.20
2023-03-29T20:58:10.595Z,9.88
2023-03-29T21:00:37.646Z,9.48
2023-03-29T21:03:03.848Z,11.30
2023-03-29T21:05:28.482Z,11.90
2023-03-29T21:07:54.615Z,15.40
2023-03-29T21:10:18.940Z,13.27
2023-03-29T21:12:43.705Z,11.77
2023-03-29T21:15:10.710Z,12.10
2023-03-29T21:17:34.496Z,12.05
2023-03-29T21:19:58.239Z,12.93
2023-03-29T21:22:23.267Z,12.18
2023-03-29T21:24:46.876Z,12.25
2023-03-29T21:27:10.957Z,11.73
2023-03-29T21:29:35.050Z,11.23
2023-03-29T21:32:00.311Z,10.43
2023-03-29T21:34:24.144Z,9.93
2023-03-29T21:36:48.296Z,9.95
2023-03-29T21:39:12.074Z,10.48
2023-03-29T21:41:36.303Z,10.68
2023-03-29T21:44:00.342Z,11.05
2023-03-29T21:46:24.810Z,10.23
2023-03-29T21:48:50.092Z,10.27
2023-03-29T21:51:13.770Z,10.13
2023-03-29T21:53:37.992Z,10.00
2023-03-29T21:56:02.345Z,9.93
2023-03-29T21:58:26.266Z,9.98
2023-03-29T22:00:50.800Z,9.48
2023-03-29T22:03:15.046Z,9.52
2023-03-29T22:05:40.644Z,8.55
2023-03-29T22:08:05.353Z,8.63
2023-03-29T22:10:29.802Z,9.10
2023-03-29T22:12:53.711Z,8.18
2023-03-29T22:15:18.685Z,8.85
2023-03-29T22:17:42.903Z,8.30
2023-03-29T22:20:12.878Z,8.98
2023-03-29T22:22:38.055Z,7.45
2023-03-29T22:25:01.857Z,7.65
2023-03-29T22:27:25.579Z,8.15
2023-03-29T22:29:49.378Z,8.27
2023-03-29T22:32:13.101Z,7.80
2023-03-29T22:34:36.966Z,8.13
2023-03-29T22:37:00.647Z,7.72
2023-03-29T22:39:25.838Z,7.88
2023-03-29T22:41:49.498Z,7.75
2023-03-29T22:44:13.831Z,7.43
2023-03-29T22:46:37.512Z,7.40
2023-03-29T22:49:01.389Z,7.78
2023-03-29T22:51:25.186Z,8.30
2023-03-29T22:53:49.628Z,7.78
2023-03-29T22:56:15.550Z,7.53
2023-03-29T22:58:39.641Z,8.45
2023-03-29T23:01:03.802Z,7.90
2023-03-29T23:03:27.823Z,7.72
2023-03-29T23:05:52.380Z,7.97
2023-03-29T23:08:16.521Z,8.07
2023-03-29T23:10:40.182Z,7.75
2023-03-29T23:13:09.663Z,7.45
2023-03-29T23:15:33.996Z,7.95
2023-03-29T23:17:58.076Z,8.00
2023-03-29T23:20:21.902Z,7.97
2023-03-29T23:22:45.511Z,7.18
2023-03-29T23:25:10.174Z,7.65
2023-03-29T23:27:34.697Z,7.65
2023-03-29T23:30:01.612Z,7.68
2023-03-29T23:32:25.325Z,7.80
2023-03-29T23:34:49.041Z,7.82
2023-03-29T23:37:12.758Z,8.23
2023-03-29T23:39:36.445Z,8.18
2023-03-29T23:42:00.261Z,7.70
2023-03-29T23:44:24.185Z,8.43
2023-03-29T23:46:49.526Z,8.50
2023-03-29T23:49:14.043Z,8.05
2023-03-29T23:51:39.226Z,8.70
2023-03-29T23:54:03.329Z,7.90
2023-03-29T23:56:27.040Z,8.80
2023-03-29T23:58:50.969Z,9.25
